Time;durP1;ratioP1;P1;durP2;ratioP2;P2;SDS_P1;SDS_P2;PMS_P1;PMS_P2;Temp;Humidity;BMP_temperature;BMP_pressure;BME280_temperature;BME280_humidity;BME280_pressure;Samples;Min_cycle;Max_cycle;Signal;HPM_P1;HPM_P2
2023/01/08 00:00:26;;;;;;;6.38;5.32;;;9.30;99.90;;;;;;5076241;28;20120;-48
2023/01/08 00:02:52;;;;;;;7.68;4.78;;;9.30;99.90;;;;;;5095151;28;20051;-46
2023/01/08 00:05:20;;;;;;;6.55;4.70;;;9.30;99.90;;;;;;5096058;28;20043;-47
2023/01/08 00:07:46;;;;;;;7.78;5.22;;;9.30;99.90;;;;;;5077911;28;20138;-47
2023/01/08 00:10:12;;;;;;;7.20;4.55;;;9.30;99.90;;;;;;5095671;28;20068;-47
2023/01/08 00:12:37;;;;;;;5.78;5.07;;;9.40;99.90;;;;;;5095742;28;20503;-48
2023/01/08 00:15:03;;;;;;;6.65;4.65;;;9.40;99.90;;;;;;5095316;28;20067;-48
2023/01/08 00:17:29;;;;;;;8.05;4.90;;;9.40;99.90;;;;;;5094748;28;20504;-47
2023/01/08 00:19:55;;;;;;;7.38;5.03;;;9.40;99.90;;;;;;5093845;28;20039;-46
2023/01/08 00:22:20;;;;;;;7.70;4.93;;;9.40;99.90;;;;;;5096207;28;20043;-47
2023/01/08 00:24:46;;;;;;;9.95;5.47;;;9.30;99.90;;;;;;5077343;28;20043;-49
2023/01/08 00:27:11;;;;;;;7.57;5.05;;;9.30;99.90;;;;;;5076612;28;20050;-47
2023/01/08 00:29:37;;;;;;;9.13;5.35;;;9.20;99.90;;;;;;5093980;28;20303;-48
2023/01/08 00:32:03;;;;;;;7.40;4.88;;;9.10;99.90;;;;;;5093787;28;20609;-50
2023/01/08 00:34:29;;;;;;;6.25;4.90;;;9.10;99.90;;;;;;5095299;28;20050;-48
2023/01/08 00:36:54;;;;;;;8.07;5.20;;;9.10;99.90;;;;;;5076535;28;20035;-46
2023/01/08 00:39:20;;;;;;;4.93;4.47;;;9.20;99.90;;;;;;5075802;28;20449;-48
2023/01/08 00:41:47;;;;;;;5.95;5.35;;;9.20;99.90;;;;;;5076213;28;20059;-50
2023/01/08 00:44:12;;;;;;;6.70;4.90;;;9.20;99.90;;;;;;5095298;28;20445;-47
2023/01/08 00:46:38;;;;;;;7.38;4.60;;;9.10;99.90;;;;;;5093566;28;20048;-47
2023/01/08 00:49:04;;;;;;;7.10;4.95;;;9.10;99.90;;;;;;5093223;28;20046;-49
2023/01/08 00:51:29;;;;;;;6.03;4.38;;;9.00;99.90;;;;;;5094390;28;20050;-49
2023/01/08 00:53:55;;;;;;;9.13;5.95;;;9.00;99.90;;;;;;5094456;28;20405;-47
2023/01/08 00:56:21;;;;;;;5.50;4.25;;;9.00;99.90;;;;;;5094605;28;20079;-47
2023/01/08 00:58:46;;;;;;;5.32;4.68;;;9.00;99.90;;;;;;5086557;28;20200;-46
2023/01/08 01:01:13;;;;;;;6.22;4.30;;;9.00;99.90;;;;;;5069893;28;20072;-46
2023/01/08 01:03:39;;;;;;;7.28;4.70;;;9.00;99.90;;;;;;5081500;28;20055;-47
2023/01/08 01:06:06;;;;;;;5.85;4.35;;;9.00;99.90;;;;;;5094685;28;20438;-47
2023/01/08 01:08:33;;;;;;;7.90;4.47;;;9.00;99.90;;;;;;5094613;28;20120;-49
2023/01/08 01:10:58;;;;;;;6.32;4.43;;;9.10;99.90;;;;;;5094463;28;20070;-49
2023/01/08 01:13:24;;;;;;;6.50;4.32;;;9.00;99.90;;;;;;5094128;28;20173;-47
2023/01/08 01:15:58;;;;;;;5.78;4.20;;;9.00;99.90;;;;;;5093673;28;20124;-48
2023/01/08 01:18:23;;;;;;;6.25;4.28;;;9.00;99.90;;;;;;5074615;28;20977;-49
2023/01/08 01:20:50;;;;;;;10.15;4.60;;;8.90;99.90;;;;;;5093497;28;20044;-47
2023/01/08 01:23:16;;;;;;;6.43;4.00;;;8.90;99.90;;;;;;5094599;28;20047;-49
2023/01/08 01:25:41;;;;;;;5.57;4.57;;;8.80;99.90;;;;;;5094029;28;20653;-46
2023/01/08 01:28:07;;;;;;;7.50;4.60;;;8.80;99.90;;;;;;5092983;28;20414;-48
2023/01/08 01:30:32;;;;;;;8.35;4.47;;;8.80;99.90;;;;;;5093156;28;20079;-48
2023/01/08 01:32:58;;;;;;;7.93;4.72;;;8.80;99.90;;;;;;5093023;28;20438;-47
2023/01/08 01:35:24;;;;;;;7.72;5.03;;;8.80;99.90;;;;;;5093336;28;20059;-47
2023/01/08 01:37:49;;;;;;;7.97;4.43;;;8.70;99.90;;;;;;5093854;28;20043;-48
2023/01/08 01:40:15;;;;;;;14.60;5.50;;;8.70;99.90;;;;;;5092923;28;20040;-47
2023/01/08 01:42:42;;;;;;;9.27;4.30;;;8.60;99.90;;;;;;5093639;28;20047;-47
2023/01/08 01:45:13;;;;;;;10.30;4.07;;;8.60;99.90;;;;;;5093886;28;20108;-47
2023/01/08 01:47:40;;;;;;;7.28;3.30;;;8.60;99.90;;;;;;5093739;28;20040;-46
2023/01/08 01:50:18;;;;;;;4.63;2.90;;;8.50;99.90;;;;;;5092457;28;20043;-48
2023/01/08 01:52:53;;;;;;;7.72;3.35;;;8.50;99.90;;;;;;5094427;28;20046;-48
2023/01/08 01:55:19;;;;;;;8.50;2.92;;;8.40;99.90;;;;;;5075489;28;20050;-50
2023/01/08 01:57:49;;;;;;;10.75;3.17;;;8.40;99.90;;;;;;5094331;28;20043;-47
2023/01/08 02:00:15;;;;;;;8.75;3.08;;;8.30;99.90;;;;;;5093352;28;20052;-49
2023/01/08 02:02:41;;;;;;;8.52;3.00;;;8.30;99.90;;;;;;5076100;28;20380;-47
2023/01/08 02:05:07;;;;;;;6.93;2.60;;;8.20;99.90;;;;;;5093375;28;20036;-47
2023/01/08 02:07:37;;;;;;;9.50;2.88;;;8.20;99.90;;;;;;5093674;28;20039;-46
2023/01/08 02:10:08;;;;;;;13.00;2.80;;;8.20;99.90;;;;;;5092688;28;20050;-46
2023/01/08 02:12:47;;;;;;;11.18;2.97;;;8.20;99.90;;;;;;5093645;28;20517;-46
2023/01/08 02:15:17;;;;;;;13.23;2.63;;;8.10;99.90;;;;;;5076319;28;20051;-47
2023/01/08 02:17:49;;;;;;;14.32;2.45;;;8.00;99.90;;;;;;5075770;28;20031;-47
2023/01/08 02:20:33;;;;;;;11.23;2.65;;;8.10;99.90;;;;;;5092981;28;20048;-47
2023/01/08 02:23:33;;;;;;;13.82;3.63;;;8.00;99.90;;;;;;5094223;28;20126;-47
2023/01/08 02:26:05;;;;;;;7.82;2.20;;;8.00;99.90;;;;;;5075247;28;20055;-50
2023/01/08 02:28:36;;;;;;;14.32;2.60;;;8.00;99.90;;;;;;5092239;28;20043;-47
2023/01/08 02:31:04;;;;;;;12.18;2.97;;;8.00;99.90;;;;;;5093492;28;20044;-48
2023/01/08 02:33:31;;;;;;;16.27;3.30;;;7.90;99.90;;;;;;5094049;28;20381;-47
2023/01/08 02:36:17;;;;;;;11.02;2.88;;;7.90;99.90;;;;;;5093437;28;20081;-48
2023/01/08 02:39:26;;;;;;;19.25;3.45;;;7.90;99.90;;;;;;5093462;28;20047;-47
2023/01/08 02:42:15;;;;;;;11.10;3.60;;;7.80;99.90;;;;;;5093976;28;20047;-49
2023/01/08 02:45:01;;;;;;;10.15;3.03;;;7.80;99.90;;;;;;5097525;28;20044;-49
2023/01/08 02:47:43;;;;;;;13.02;2.90;;;7.70;99.90;;;;;;5097448;28;20073;-47
2023/01/08 02:50:27;;;;;;;9.50;2.83;;;7.60;99.90;;;;;;5078735;28;20046;-47
2023/01/08 02:53:07;;;;;;;10.82;2.65;;;7.60;99.90;;;;;;5097072;28;20508;-47
2023/01/08 02:55:34;;;;;;;11.32;3.03;;;7.50;99.90;;;;;;5097133;28;20059;-49
2023/01/08 02:58:02;;;;;;;15.43;3.15;;;7.60;99.90;;;;;;5096137;28;20462;-47
2023/01/08 03:00:28;;;;;;;12.63;2.78;;;7.50;99.90;;;;;;5093950;28;20397;-47
2023/01/08 03:03:10;;;;;;;14.88;3.60;;;7.60;99.90;;;;;;5092242;28;20083;-48
2023/01/08 03:05:38;;;;;;;15.30;3.58;;;7.50;99.90;;;;;;5094911;28;20047;-50
2023/01/08 03:08:05;;;;;;;15.30;2.75;;;7.60;99.90;;;;;;5094956;28;20044;-47
2023/01/08 03:10:32;;;;;;;9.50;2.42;;;7.50;99.90;;;;;;5096702;28;20043;-47
2023/01/08 03:13:00;;;;;;;12.20;2.70;;;7.50;99.90;;;;;;5096619;28;20043;-47
2023/01/08 03:15:42;;;;;;;13.02;3.15;;;7.40;99.90;;;;;;5096770;28;20050;-47
2023/01/08 03:18:12;;;;;;;12.50;2.63;;;7.30;99.90;;;;;;5095796;28;20039;-48
2023/01/08 03:20:38;;;;;;;11.57;2.80;;;7.30;99.90;;;;;;5094666;28;20047;-47
2023/01/08 03:23:08;;;;;;;12.75;3.50;;;7.20;99.90;;;;;;5095956;28;20046;-47
2023/01/08 03:25:38;;;;;;;14.60;2.80;;;7.30;99.90;;;;;;5096449;28;20043;-48
2023/01/08 03:28:09;;;;;;;14.88;3.30;;;7.20;99.90;;;;;;5095310;28;20043;-51
2023/01/08 03:30:37;;;;;;;8.18;2.78;;;7.20;99.90;;;;;;5096000;28;20963;-47
2023/01/08 03:33:05;;;;;;;11.98;3.13;;;7.20;99.90;;;;;;5095469;28;20059;-49
2023/01/08 03:35:32;;;;;;;8.38;3.58;;;7.20;99.90;;;;;;5095293;28;20912;-49
2023/01/08 03:38:05;;;;;;;9.20;2.70;;;7.30;99.90;;;;;;5095335;28;20450;-47
2023/01/08 03:40:39;;;;;;;13.48;3.75;;;7.40;99.90;;;;;;5096117;28;20366;-48
2023/01/08 03:43:05;;;;;;;7.15;2.97;;;7.30;99.90;;;;;;5095868;28;20055;-50
2023/01/08 03:45:31;;;;;;;8.65;3.08;;;7.30;99.90;;;;;;5095773;28;20259;-47
2023/01/08 03:47:59;;;;;;;11.90;3.42;;;7.40;99.90;;;;;;5076252;28;20043;-51
2023/01/08 03:50:28;;;;;;;9.05;4.35;;;7.40;99.90;;;;;;5093974;28;20090;-48
2023/01/08 03:52:54;;;;;;;7.70;3.38;;;7.40;99.90;;;;;;5077593;28;20417;-47
2023/01/08 03:55:20;;;;;;;12.40;3.42;;;7.30;99.90;;;;;;5095846;28;20083;-47
2023/01/08 03:57:45;;;;;;;10.32;3.40;;;7.40;99.90;;;;;;5095533;28;20198;-48
2023/01/08 04:00:12;;;;;;;7.70;2.88;;;7.30;99.90;;;;;;5095051;28;20036;-51
2023/01/08 04:02:37;;;;;;;9.80;3.30;;;7.40;99.90;;;;;;5094994;28;20062;-51
2023/01/08 04:05:03;;;;;;;10.00;3.58;;;7.30;99.90;;;;;;5095542;28;20048;-48
2023/01/08 04:07:29;;;;;;;7.50;3.50;;;7.30;99.90;;;;;;5095257;28;20047;-46
2023/01/08 04:09:55;;;;;;;8.23;2.88;;;7.40;99.90;;;;;;5094713;28;20044;-48
2023/01/08 04:12:23;;;;;;;9.27;3.15;;;7.40;99.90;;;;;;5096658;28;20508;-49
2023/01/08 04:14:48;;;;;;;7.10;3.65;;;7.40;99.90;;;;;;5095076;28;20546;-50
2023/01/08 04:17:14;;;;;;;10.73;3.92;;;7.40;99.90;;;;;;5095656;28;20113;-47
2023/01/08 04:19:40;;;;;;;7.82;3.42;;;7.40;99.90;;;;;;5094254;28;20460;-47
2023/01/08 04:22:07;;;;;;;11.00;4.15;;;7.40;99.90;;;;;;5094814;28;20088;-48
2023/01/08 04:24:33;;;;;;;8.93;3.97;;;7.40;99.90;;;;;;5095399;28;20055;-50
2023/01/08 04:26:59;;;;;;;9.00;4.40;;;7.40;99.90;;;;;;5095448;28;20064;-50
2023/01/08 04:29:24;;;;;;;7.97;3.88;;;7.50;99.90;;;;;;5093974;28;20092;-47
2023/01/08 04:31:50;;;;;;;6.05;3.63;;;7.50;99.90;;;;;;5094795;28;20479;-48
2023/01/08 04:34:16;;;;;;;7.90;3.65;;;7.40;99.90;;;;;;5095285;28;20122;-51
2023/01/08 04:36:41;;;;;;;8.23;3.63;;;7.50;99.90;;;;;;5094791;28;20111;-51
2023/01/08 04:39:09;;;;;;;9.95;4.35;;;7.60;99.90;;;;;;5074892;28;20194;-48
2023/01/08 04:41:34;;;;;;;7.38;3.67;;;7.60;99.90;;;;;;5076239;28;20605;-48
2023/01/08 04:44:00;;;;;;;7.07;4.07;;;7.50;99.90;;;;;;5094406;28;20127;-47
2023/01/08 04:46:25;;;;;;;8.45;3.95;;;7.60;99.90;;;;;;5095157;28;20047;-49
2023/01/08 04:48:51;;;;;;;7.50;4.28;;;7.50;99.90;;;;;;5075158;28;20053;-48
2023/01/08 04:51:17;;;;;;;9.10;3.97;;;7.50;99.90;;;;;;5095315;28;20044;-49
2023/01/08 04:53:44;;;;;;;5.65;3.75;;;7.50;99.90;;;;;;5094529;28;20044;-50
2023/01/08 04:56:10;;;;;;;7.18;4.25;;;7.60;99.90;;;;;;5094289;28;20043;-47
2023/01/08 04:58:37;;;;;;;7.18;4.55;;;7.60;99.90;;;;;;5093244;28;20424;-49
2023/01/08 05:01:16;;;;;;;6.43;4.10;;;7.60;99.90;;;;;;5076334;28;20355;-47
2023/01/08 05:03:42;;;;;;;9.20;4.43;;;7.60;99.90;;;;;;5077347;28;20561;-48
2023/01/08 05:06:08;;;;;;;6.65;3.90;;;7.60;99.90;;;;;;5092574;28;20052;-47
2023/01/08 05:08:34;;;;;;;6.57;3.60;;;7.70;99.90;;;;;;5093417;28;20046;-48
2023/01/08 05:11:00;;;;;;;6.78;3.30;;;7.70;99.90;;;;;;5094302;28;20039;-49
2023/01/08 05:13:26;;;;;;;8.60;3.40;;;7.80;99.90;;;;;;5094167;28;20048;-49
2023/01/08 05:15:52;;;;;;;7.43;3.42;;;7.80;99.90;;;;;;5095357;28;20550;-48
2023/01/08 05:18:18;;;;;;;9.40;3.65;;;7.70;99.90;;;;;;5093618;28;20126;-49
2023/01/08 05:20:43;;;;;;;7.40;3.22;;;7.70;99.90;;;;;;5095468;28;20089;-49
2023/01/08 05:23:09;;;;;;;8.48;3.10;;;7.70;99.90;;;;;;5094750;28;20370;-49
2023/01/08 05:25:35;;;;;;;6.85;3.00;;;7.60;99.90;;;;;;5094091;28;20822;-48
2023/01/08 05:28:01;;;;;;;7.68;2.80;;;7.60;99.90;;;;;;5092900;28;20051;-50
2023/01/08 05:30:26;;;;;;;6.65;2.72;;;7.60;99.90;;;;;;5093609;28;20324;-48
2023/01/08 05:32:52;;;;;;;9.00;2.90;;;7.60;99.90;;;;;;5094127;28;20079;-51
2023/01/08 05:35:18;;;;;;;10.20;3.47;;;7.50;99.90;;;;;;5094166;28;20046;-50
2023/01/08 05:37:43;;;;;;;8.25;2.40;;;7.50;99.90;;;;;;5093656;28;20036;-50
2023/01/08 05:40:10;;;;;;;6.13;2.65;;;7.40;99.90;;;;;;5092986;28;20051;-47
2023/01/08 05:42:36;;;;;;;6.93;2.72;;;7.40;99.90;;;;;;5093491;28;20128;-47
2023/01/08 05:45:06;;;;;;;8.35;2.40;;;7.40;99.90;;;;;;5093663;28;20039;-48
2023/01/08 05:47:32;;;;;;;6.18;2.00;;;7.30;99.90;;;;;;5093821;28;20052;-48
2023/01/08 05:49:58;;;;;;;10.05;2.28;;;7.40;99.90;;;;;;5092630;28;20054;-48
2023/01/08 05:52:24;;;;;;;9.35;2.80;;;7.40;99.90;;;;;;5076456;28;20043;-48
2023/01/08 05:54:50;;;;;;;11.00;2.40;;;7.40;99.90;;;;;;5093893;28;20047;-49
2023/01/08 05:57:15;;;;;;;9.43;2.45;;;7.30;99.90;;;;;;5094536;28;20048;-50
2023/01/08 05:59:41;;;;;;;5.63;2.28;;;7.30;99.90;;;;;;5092946;28;20048;-46
2023/01/08 06:02:07;;;;;;;6.97;2.45;;;7.30;99.90;;;;;;5093865;28;20230;-50
2023/01/08 06:04:33;;;;;;;8.95;2.40;;;7.20;99.90;;;;;;5093638;28;20039;-48
2023/01/08 06:06:59;;;;;;;5.47;2.50;;;7.20;99.90;;;;;;5074906;28;20105;-48
2023/01/08 06:09:24;;;;;;;6.10;1.80;;;7.10;99.90;;;;;;5091417;28;20044;-47
2023/01/08 06:11:51;;;;;;;6.85;2.28;;;7.10;99.90;;;;;;5094069;28;20055;-48
2023/01/08 06:14:17;;;;;;;8.00;2.33;;;7.10;99.90;;;;;;5093578;28;20427;-47
2023/01/08 06:16:43;;;;;;;10.48;2.88;;;7.00;99.90;;;;;;5093638;28;20131;-48
2023/01/08 06:19:10;;;;;;;10.23;3.05;;;7.00;99.90;;;;;;5093899;28;20047;-48
2023/01/08 06:21:36;;;;;;;6.68;3.13;;;7.00;99.90;;;;;;5097367;28;20051;-48
2023/01/08 06:24:03;;;;;;;11.60;3.90;;;6.90;99.90;;;;;;5096543;28;20081;-48
2023/01/08 06:26:28;;;;;;;5.80;2.88;;;6.90;99.90;;;;;;5097850;28;20120;-48
2023/01/08 06:28:54;;;;;;;10.27;3.42;;;6.80;99.90;;;;;;5096564;28;20477;-50
2023/01/08 06:31:20;;;;;;;8.23;3.05;;;6.80;99.90;;;;;;5098111;28;20057;-47
2023/01/08 06:33:45;;;;;;;5.32;3.05;;;6.80;99.90;;;;;;5098203;28;20298;-47
2023/01/08 06:36:11;;;;;;;7.95;3.85;;;6.80;99.90;;;;;;5062009;28;20051;-48
2023/01/08 06:38:37;;;;;;;11.50;3.65;;;6.80;99.90;;;;;;5095594;28;20053;-50
2023/01/08 06:41:04;;;;;;;7.32;3.58;;;6.80;99.90;;;;;;5097399;28;20044;-48
2023/01/08 06:43:30;;;;;;;8.20;4.05;;;6.70;99.90;;;;;;5097626;28;20043;-50
2023/01/08 06:45:57;;;;;;;8.13;5.18;;;6.70;99.90;;;;;;5097885;28;20089;-48
2023/01/08 06:48:23;;;;;;;8.43;4.43;;;6.70;99.90;;;;;;5078017;28;20043;-49
2023/01/08 06:50:50;;;;;;;9.57;4.85;;;6.70;99.90;;;;;;5097053;28;20062;-47
2023/01/08 06:53:16;;;;;;;6.90;4.20;;;6.60;99.90;;;;;;5079084;28;20482;-50
2023/01/08 06:55:41;;;;;;;10.90;5.45;;;6.60;99.90;;;;;;5097863;28;20173;-47
2023/01/08 06:58:11;;;;;;;17.33;5.82;;;6.50;99.90;;;;;;5095344;28;20231;-52
2023/01/08 07:00:37;;;;;;;11.45;6.07;;;6.60;99.90;;;;;;5097036;28;20444;-47
2023/01/08 07:03:03;;;;;;;9.32;6.68;;;6.50;99.90;;;;;;5097446;28;20047;-47
2023/01/08 07:05:29;;;;;;;9.07;5.55;;;6.70;99.90;;;;;;5097130;28;20588;-48
2023/01/08 07:07:55;;;;;;;8.52;5.95;;;6.60;99.90;;;;;;5096266;28;20374;-47
2023/01/08 07:10:21;;;;;;;12.80;5.85;;;6.70;99.90;;;;;;5096801;28;20077;-48
2023/01/08 07:12:48;;;;;;;12.18;5.85;;;6.70;99.90;;;;;;5097120;28;20478;-49
2023/01/08 07:15:14;;;;;;;10.32;5.30;;;6.70;99.90;;;;;;5097318;28;20273;-49
2023/01/08 07:17:40;;;;;;;10.05;5.78;;;6.60;99.90;;;;;;5095697;28;20039;-47
2023/01/08 07:20:06;;;;;;;9.90;5.75;;;6.70;99.90;;;;;;5095603;28;20071;-48
2023/01/08 07:22:32;;;;;;;12.98;5.22;;;6.70;99.90;;;;;;5096812;28;20385;-46
2023/01/08 07:24:58;;;;;;;9.85;5.35;;;6.60;99.90;;;;;;5096494;28;20051;-47
2023/01/08 07:27:23;;;;;;;7.80;4.88;;;6.60;99.90;;;;;;5094984;28;20036;-48
2023/01/08 07:29:49;;;;;;;10.27;4.90;;;6.50;99.90;;;;;;5094970;28;20044;-49
2023/01/08 07:32:15;;;;;;;9.40;5.07;;;6.50;99.90;;;;;;5096858;28;20054;-50
2023/01/08 07:34:40;;;;;;;16.85;5.40;;;6.60;99.90;;;;;;5097170;28;20043;-47
2023/01/08 07:37:06;;;;;;;9.65;5.18;;;6.50;99.90;;;;;;5096424;28;20036;-46
2023/01/08 07:39:32;;;;;;;9.45;4.53;;;6.60;99.90;;;;;;5095423;28;20852;-46
2023/01/08 07:41:58;;;;;;;10.90;4.80;;;6.50;99.90;;;;;;5096334;28;20091;-47
2023/01/08 07:44:24;;;;;;;13.68;5.20;;;6.50;99.90;;;;;;5096665;28;20168;-47
2023/01/08 07:46:49;;;;;;;11.30;4.53;;;6.60;99.90;;;;;;5096413;28;20082;-48
2023/01/08 07:49:15;;;;;;;8.05;3.97;;;6.50;99.90;;;;;;5095652;28;20071;-49
2023/01/08 07:51:41;;;;;;;8.43;4.07;;;6.50;99.90;;;;;;5077773;28;20062;-47
2023/01/08 07:54:06;;;;;;;8.48;3.95;;;6.50;99.90;;;;;;5096201;28;20381;-48
2023/01/08 07:56:33;;;;;;;9.75;3.80;;;6.50;99.90;;;;;;5096007;28;20043;-47
2023/01/08 07:58:58;;;;;;;10.23;4.18;;;6.50;99.90;;;;;;5076730;28;20048;-48
2023/01/08 08:01:25;;;;;;;10.82;4.45;;;6.60;99.90;;;;;;5095544;28;20054;-47
2023/01/08 08:03:51;;;;;;;14.02;4.47;;;6.40;99.90;;;;;;5095725;28;20509;-46
2023/01/08 08:06:16;;;;;;;11.32;4.20;;;6.40;99.90;;;;;;5076263;28;20044;-47
2023/01/08 08:08:42;;;;;;;11.02;3.30;;;6.40;99.90;;;;;;5097802;28;20043;-46
2023/01/08 08:11:08;;;;;;;7.22;3.30;;;6.50;99.90;;;;;;5097711;28;20044;-49
2023/01/08 08:13:33;;;;;;;9.77;3.95;;;6.40;99.90;;;;;;5098085;28;20051;-47
2023/01/08 08:16:03;;;;;;;11.68;4.18;;;6.50;99.90;;;;;;5097456;28;20062;-46
2023/01/08 08:18:29;;;;;;;8.85;2.85;;;6.50;99.90;;;;;;5092931;28;20478;-49
2023/01/08 08:20:56;;;;;;;8.75;3.33;;;6.40;99.90;;;;;;5094808;28;20046;-47
2023/01/08 08:23:22;;;;;;;11.05;3.05;;;6.50;99.90;;;;;;5095505;28;20048;-47
2023/01/08 08:25:48;;;;;;;11.45;3.72;;;6.60;99.90;;;;;;5095038;28;20039;-48
2023/01/08 08:28:14;;;;;;;8.30;2.88;;;6.50;99.90;;;;;;5094502;28;20494;-46
2023/01/08 08:30:39;;;;;;;15.80;3.55;;;6.50;99.90;;;;;;5094736;28;20052;-48
2023/01/08 08:33:06;;;;;;;9.98;3.08;;;6.60;99.90;;;;;;5094902;28;20833;-47
2023/01/08 08:35:33;;;;;;;12.18;3.10;;;6.60;99.90;;;;;;5094375;28;20272;-48
2023/01/08 08:37:59;;;;;;;8.27;3.95;;;6.60;99.90;;;;;;5095776;28;20062;-46
2023/01/08 08:40:26;;;;;;;10.18;3.13;;;6.60;99.90;;;;;;5096625;28;20048;-48
2023/01/08 08:42:59;;;;;;;8.90;3.33;;;6.60;99.90;;;;;;5096574;28;20495;-47
2023/01/08 08:45:25;;;;;;;14.27;3.88;;;6.60;99.90;;;;;;5094792;28;20400;-47
2023/01/08 08:47:51;;;;;;;11.48;3.95;;;6.60;99.90;;;;;;5093636;28;20391;-46
2023/01/08 08:50:18;;;;;;;17.45;4.30;;;6.60;99.90;;;;;;5095101;28;20043;-48
2023/01/08 08:52:44;;;;;;;11.18;3.47;;;6.60;99.90;;;;;;5096154;28;20169;-47
2023/01/08 08:55:16;;;;;;;10.60;4.05;;;6.70;99.90;;;;;;5095633;28;20185;-49
2023/01/08 08:57:45;;;;;;;9.82;3.22;;;6.60;99.90;;;;;;5094808;28;21179;-47
2023/01/08 09:00:12;;;;;;;10.75;3.55;;;6.60;99.90;;;;;;5094719;28;20039;-46
2023/01/08 09:02:38;;;;;;;12.18;3.70;;;6.60;99.90;;;;;;5080448;28;20150;-46
2023/01/08 09:05:04;;;;;;;8.55;3.42;;;6.70;99.90;;;;;;5075446;28;20119;-48
2023/01/08 09:07:30;;;;;;;8.63;3.55;;;6.70;99.90;;;;;;5071922;28;20043;-48
2023/01/08 09:09:55;;;;;;;9.95;3.40;;;6.70;99.90;;;;;;5077814;28;20054;-47
2023/01/08 09:12:21;;;;;;;8.93;3.33;;;6.80;99.90;;;;;;5091861;28;20036;-48
2023/01/08 09:14:49;;;;;;;14.80;4.10;;;6.80;99.90;;;;;;5093160;28;20390;-47
2023/01/08 09:17:14;;;;;;;9.05;3.42;;;6.80;99.90;;;;;;5091850;28;20086;-46
2023/01/08 09:19:40;;;;;;;6.88;2.90;;;6.80;99.90;;;;;;5094160;28;20127;-45
2023/01/08 09:22:06;;;;;;;13.13;3.30;;;6.80;99.90;;;;;;5093135;28;20049;-48
2023/01/08 09:24:31;;;;;;;13.05;3.45;;;6.80;99.90;;;;;;5093872;28;20065;-48
2023/01/08 09:26:57;;;;;;;10.48;3.42;;;6.90;99.90;;;;;;5094430;28;20383;-48
2023/01/08 09:29:23;;;;;;;9.20;3.47;;;6.90;99.90;;;;;;5092988;28;20537;-48
2023/01/08 09:31:49;;;;;;;10.05;3.47;;;7.00;99.90;;;;;;5094201;28;20604;-47
2023/01/08 09:34:15;;;;;;;11.65;3.38;;;6.90;99.90;;;;;;5080824;28;20044;-48
2023/01/08 09:36:40;;;;;;;8.88;3.35;;;7.00;99.90;;;;;;5093675;28;20036;-47
2023/01/08 09:39:06;;;;;;;7.82;2.97;;;6.90;99.90;;;;;;5093418;28;20077;-46
2023/01/08 09:41:35;;;;;;;8.20;2.80;;;7.00;99.90;;;;;;5094633;28;20452;-47
2023/01/08 09:44:04;;;;;;;8.13;3.05;;;7.00;99.90;;;;;;5093967;28;20081;-49
2023/01/08 09:46:30;;;;;;;8.15;2.90;;;7.00;99.90;;;;;;5093854;28;20036;-47
2023/01/08 09:49:00;;;;;;;13.43;3.03;;;7.10;99.90;;;;;;5093035;28;20093;-46
2023/01/08 09:51:44;;;;;;;7.97;2.90;;;7.00;99.90;;;;;;5094209;28;20401;-49
2023/01/08 09:54:14;;;;;;;8.45;2.50;;;7.10;99.90;;;;;;5098236;28;20047;-46
2023/01/08 09:56:40;;;;;;;10.07;2.88;;;7.10;99.90;;;;;;5097157;28;20039;-47
2023/01/08 09:59:06;;;;;;;9.68;2.38;;;7.20;99.90;;;;;;5097589;28;20434;-46
2023/01/08 10:01:37;;;;;;;5.35;1.73;;;7.20;99.90;;;;;;5098048;28;20052;-46
2023/01/08 10:04:07;;;;;;;12.85;2.95;;;7.30;99.90;;;;;;5080008;28;20056;-46
2023/01/08 10:06:33;;;;;;;8.38;2.28;;;7.20;99.90;;;;;;5096541;28;20530;-47
2023/01/08 10:08:59;;;;;;;12.27;2.55;;;7.30;99.90;;;;;;5096728;28;20514;-48
2023/01/08 10:11:44;;;;;;;10.52;2.65;;;7.30;99.90;;;;;;5079664;28;20066;-47
2023/01/08 10:14:23;;;;;;;12.20;2.65;;;7.30;99.90;;;;;;5079084;28;20043;-48
2023/01/08 10:16:57;;;;;;;9.75;3.22;;;7.40;99.90;;;;;;5098038;28;20050;-46
2023/01/08 10:19:23;;;;;;;;;;;7.40;99.90;;;;;;5079130;28;20048;-50
2023/01/08 10:21:49;;;;;;;12.77;2.70;;;7.50;99.90;;;;;;5097056;28;19926;-46
2023/01/08 10:24:15;;;;;;;10.93;2.45;;;7.50;99.90;;;;;;5098312;28;20039;-49
2023/01/08 10:26:40;;;;;;;13.48;3.00;;;7.50;99.90;;;;;;5097552;28;20437;-47
2023/01/08 10:29:12;;;;;;;12.57;3.45;;;7.50;99.90;;;;;;5077413;28;20490;-46
2023/01/08 10:31:56;;;;;;;12.90;2.53;;;7.50;99.90;;;;;;5087569;28;20513;-48
2023/01/08 10:34:26;;;;;;;15.05;2.78;;;7.50;99.90;;;;;;5096008;28;20100;-49
2023/01/08 10:36:53;;;;;;;9.18;2.25;;;7.60;99.90;;;;;;5096706;28;20505;-46
2023/01/08 10:39:28;;;;;;;24.15;3.40;;;7.60;99.90;;;;;;5096420;28;20112;-47
2023/01/08 10:42:01;;;;;;;11.52;3.53;;;7.60;99.90;;;;;;5095427;28;20059;-49
2023/01/08 10:44:27;;;;;;;9.68;2.83;;;7.60;99.90;;;;;;5096256;28;20169;-46
2023/01/08 10:46:57;;;;;;;11.45;2.72;;;7.60;99.90;;;;;;5096647;28;20039;-48
2023/01/08 10:49:44;;;;;;;11.07;3.00;;;7.60;99.90;;;;;;5096115;28;20035;-47
2023/01/08 10:52:32;;;;;;;12.18;2.53;;;7.60;99.90;;;;;;5094848;28;20142;-48
2023/01/08 10:55:20;;;;;;;15.20;2.88;;;7.60;99.90;;;;;;5095758;28;20397;-48
2023/01/08 10:58:00;;;;;;;16.23;2.60;;;7.60;99.90;;;;;;5095732;28;20039;-48
2023/01/08 11:00:32;;;;;;;15.40;3.25;;;7.70;99.90;;;;;;5084247;28;20188;-47
2023/01/08 11:03:07;;;;;;;11.30;2.70;;;7.70;99.90;;;;;;5096848;28;20494;-47
2023/01/08 11:05:41;;;;;;;15.23;3.10;;;7.70;99.90;;;;;;5095673;28;20050;-47
2023/01/08 11:08:16;;;;;;;13.43;3.58;;;7.80;99.90;;;;;;5096208;28;20092;-47
2023/01/08 11:10:51;;;;;;;12.95;2.38;;;7.90;99.90;;;;;;5078629;28;20070;-48
2023/01/08 11:13:18;;;;;;;16.60;3.40;;;8.00;99.90;;;;;;5096804;28;20045;-46
2023/01/08 11:15:44;;;;;;;10.80;3.53;;;7.90;99.90;;;;;;5096363;28;20150;-49
2023/01/08 11:18:24;;;;;;;14.95;3.83;;;7.90;99.90;;;;;;5094751;28;20065;-47
2023/01/08 11:20:52;;;;;;;15.25;2.90;;;7.90;99.90;;;;;;5096357;28;20417;-49
2023/01/08 11:23:19;;;;;;;12.07;3.28;;;7.90;99.90;;;;;;5097384;28;20176;-47
2023/01/08 11:26:05;;;;;;;13.63;3.33;;;7.90;99.90;;;;;;5096425;28;20048;-47
2023/01/08 11:28:54;;;;;;;18.20;3.85;;;7.90;99.90;;;;;;5093264;28;20306;-49
2023/01/08 11:31:46;;;;;;;7.95;2.60;;;7.90;99.90;;;;;;5089180;28;20539;-47
2023/01/08 11:34:21;;;;;;;16.30;3.65;;;7.90;99.90;;;;;;5096626;28;20448;-46
2023/01/08 11:37:00;;;;;;;10.55;3.35;;;7.90;99.90;;;;;;5095785;28;21009;-48
2023/01/08 11:39:26;;;;;;;13.95;4.28;;;7.80;99.90;;;;;;5095954;28;20039;-47
2023/01/08 11:42:00;;;;;;;13.98;2.97;;;7.90;99.90;;;;;;5096298;28;20131;-47
2023/01/08 11:44:49;;;;;;;12.05;2.97;;;7.90;99.90;;;;;;5095833;28;20059;-46
2023/01/08 11:47:18;;;;;;;12.00;3.20;;;8.00;99.90;;;;;;5096123;28;20374;-47
2023/01/08 11:50:12;;;;;;;14.20;3.00;;;8.10;99.90;;;;;;5096388;28;20051;-46
2023/01/08 11:52:51;;;;;;;12.57;3.90;;;8.10;99.90;;;;;;5086110;28;20051;-47
2023/01/08 11:55:37;;;;;;;15.10;3.38;;;8.10;99.90;;;;;;5096410;28;20116;-47
2023/01/08 11:58:23;;;;;;;11.93;3.30;;;8.10;99.90;;;;;;5095927;28;20079;-46
2023/01/08 12:01:19;;;;;;;19.50;3.67;;;8.00;99.90;;;;;;5096654;28;20088;-46
2023/01/08 12:04:14;;;;;;;12.45;3.70;;;8.00;99.90;;;;;;5097196;28;20055;-49
2023/01/08 12:06:49;;;;;;;11.93;4.82;;;8.10;99.90;;;;;;4996405;28;20057;-46
2023/01/08 12:09:32;;;;;;;17.92;4.82;;;8.00;99.90;;;;;;5013394;28;20465;-49
2023/01/08 12:12:33;;;;;;;11.43;4.20;;;8.00;99.90;;;;;;4997362;28;20233;-48
2023/01/08 12:14:58;;;;;;;11.57;4.13;;;8.00;99.90;;;;;;5012431;28;20090;-50
2023/01/08 12:18:04;;;;;;;12.35;4.65;;;8.00;99.90;;;;;;5001026;28;20054;-47
2023/01/08 12:20:42;;;;;;;8.38;4.07;;;8.10;99.90;;;;;;5008507;28;20041;-46
2023/01/08 12:23:27;;;;;;;14.15;4.57;;;8.10;99.90;;;;;;4995974;28;20061;-46
2023/01/08 12:26:17;;;;;;;11.60;4.18;;;8.20;99.90;;;;;;5012302;28;20111;-50
2023/01/08 12:29:08;;;;;;;17.30;4.40;;;8.10;99.90;;;;;;4995826;28;20057;-47
2023/01/08 12:31:54;;;;;;;14.55;3.67;;;8.10;99.90;;;;;;5012466;28;20069;-50
2023/01/08 12:34:45;;;;;;;13.68;4.25;;;8.10;99.90;;;;;;4995700;28;20443;-46
2023/01/08 12:37:19;;;;;;;15.73;4.15;;;8.10;99.90;;;;;;4969871;28;20050;-49
2023/01/08 12:39:59;;;;;;;14.05;4.15;;;8.10;99.90;;;;;;4962552;28;20390;-49
2023/01/08 12:42:29;;;;;;;15.75;5.30;;;8.20;99.90;;;;;;4959712;28;20152;-47
2023/01/08 12:44:58;;;;;;;16.15;3.75;;;8.20;99.90;;;;;;5022205;28;20053;-49
2023/01/08 12:47:29;;;;;;;16.27;3.78;;;8.20;99.90;;;;;;5031311;28;20044;-48
2023/01/08 12:50:35;;;;;;;15.10;4.70;;;8.30;99.90;;;;;;5031375;28;20562;-47
2023/01/08 12:53:25;;;;;;;11.63;3.45;;;8.30;99.90;;;;;;5015923;28;20049;-47
2023/01/08 12:56:01;;;;;;;13.75;3.72;;;8.30;99.90;;;;;;5015196;28;20180;-47
2023/01/08 12:58:45;;;;;;;11.63;3.30;;;8.30;99.90;;;;;;5030928;28;20045;-47
2023/01/08 13:01:36;;;;;;;15.43;3.92;;;8.30;99.90;;;;;;5031988;28;20102;-47
2023/01/08 13:04:03;;;;;;;13.15;3.78;;;8.30;99.90;;;;;;5021752;28;20048;-47
2023/01/08 13:06:30;;;;;;;13.20;3.47;;;8.30;99.90;;;;;;5031155;28;20270;-48